createdAt,value
2023-04-04T00:01:05.619Z,6.10
2023-04-04T00:03:33.645Z,5.20
2023-04-04T00:06:01.827Z,6.90
2023-04-04T00:08:29.652Z,6.20
2023-04-04T00:10:58.763Z,5.00
2023-04-04T00:13:27.336Z,6.70
2023-04-04T00:15:55.961Z,6.10
2023-04-04T00:18:23.775Z,5.60
2023-04-04T00:20:53.977Z,11.40
2023-04-04T00:23:21.887Z,5.20
2023-04-04T00:25:52.732Z,7.00
2023-04-04T00:28:22.850Z,7.20
2023-04-04T00:30:55.901Z,5.90
2023-04-04T00:33:23.870Z,6.30
2023-04-04T00:35:52.004Z,5.70
2023-04-04T00:38:22.797Z,10.40
2023-04-04T00:40:51.543Z,6.40
2023-04-04T00:43:19.527Z,5.20
2023-04-04T00:45:58.121Z,5.50
2023-04-04T00:48:28.799Z,8.80
2023-04-04T00:50:57.048Z,9.00
2023-04-04T00:53:24.999Z,7.40
2023-04-04T00:55:52.796Z,7.20
2023-04-04T00:58:20.605Z,8.10
2023-04-04T01:00:48.463Z,7.60
2023-04-04T01:03:16.375Z,7.90
2023-04-04T01:05:44.174Z,8.00
2023-04-04T01:08:23.066Z,8.50
2023-04-04T01:10:52.398Z,7.10
2023-04-04T01:13:23.862Z,11.40
2023-04-04T01:15:51.709Z,7.50
2023-04-04T01:18:41.404Z,9.70
2023-04-04T01:21:17.466Z,9.60
2023-04-04T01:23:57.680Z,8.70
2023-04-04T01:26:31.052Z,7.50
2023-04-04T01:29:01.957Z,7.90
2023-04-04T01:32:01.523Z,9.00
2023-04-04T01:34:41.069Z,7.80
2023-04-04T01:37:19.340Z,9.60
2023-04-04T01:39:49.460Z,9.30
2023-04-04T01:42:20.065Z,9.60
2023-04-04T01:44:48.137Z,10.20
2023-04-04T01:47:15.962Z,7.10
2023-04-04T01:49:54.121Z,8.50
2023-04-04T01:52:22.059Z,9.20
2023-04-04T01:54:49.839Z,7.30
2023-04-04T01:57:17.663Z,10.10
2023-04-04T01:59:45.581Z,4.80
2023-04-04T02:02:23.421Z,8.20
2023-04-04T02:04:52.348Z,7.10
2023-04-04T02:07:20.764Z,7.60
2023-04-04T02:09:58.093Z,8.70
2023-04-04T02:12:26.495Z,9.60
2023-04-04T02:14:54.810Z,128.70
2023-04-04T02:17:22.695Z,84.60
2023-04-04T02:19:50.865Z,98.20
2023-04-04T02:22:18.593Z,15.30
2023-04-04T02:24:46.511Z,9.10
2023-04-04T02:27:14.541Z,9.70
2023-04-04T02:29:42.751Z,7.30
2023-04-04T02:32:10.551Z,8.80
2023-04-04T02:34:38.775Z,8.90
2023-04-04T02:37:06.610Z,32.40
2023-04-04T02:39:34.384Z,71.30
2023-04-04T02:42:02.241Z,52.90
2023-04-04T02:44:39.211Z,257.00
2023-04-04T02:47:07.863Z,504.30
2023-04-04T02:49:35.890Z,198.70
2023-04-04T02:52:03.953Z,64.70
2023-04-04T02:54:31.905Z,18.70
2023-04-04T02:56:59.729Z,9.20
2023-04-04T02:59:28.485Z,8.90
2023-04-04T03:01:58.833Z,4.70
2023-04-04T03:04:27.280Z,5.50
2023-04-04T03:06:55.032Z,5.60
2023-04-04T03:09:23.109Z,4.10
2023-04-04T03:11:51.841Z,6.80
2023-04-04T03:14:30.038Z,8.90
2023-04-04T03:16:58.364Z,5.70
2023-04-04T03:19:26.398Z,7.10
2023-04-04T03:21:57.075Z,4.90
2023-04-04T03:24:25.487Z,4.80
2023-04-04T03:26:53.295Z,6.50
2023-04-04T03:29:21.128Z,7.20
2023-04-04T03:31:49.030Z,5.50
2023-04-04T03:34:17.069Z,6.60
2023-04-04T03:36:46.733Z,3.80
2023-04-04T03:39:14.885Z,3.70
2023-04-04T03:41:42.721Z,5.30
2023-04-04T03:44:10.774Z,4.70
2023-04-04T03:46:38.748Z,4.30
2023-04-04T03:49:06.975Z,3.80
2023-04-04T03:51:37.723Z,5.60
2023-04-04T03:54:05.499Z,4.50
2023-04-04T03:56:33.291Z,3.70
2023-04-04T03:59:01.297Z,4.30
2023-04-04T04:01:29.160Z,4.10
2023-04-04T04:03:58.145Z,3.80
2023-04-04T04:06:26.304Z,4.60
2023-04-04T04:08:56.415Z,3.20
2023-04-04T04:11:24.221Z,6.50
2023-04-04T04:14:11.646Z,5.50
2023-04-04T04:16:48.303Z,3.00
2023-04-04T04:19:16.183Z,5.90
2023-04-04T04:21:44.149Z,3.30
2023-04-04T04:24:12.030Z,4.10
2023-04-04T04:26:39.786Z,5.00
2023-04-04T04:29:08.092Z,6.60
2023-04-04T04:31:36.187Z,6.30
2023-04-04T04:34:08.724Z,4.50
2023-04-04T04:36:36.783Z,8.20
2023-04-04T04:39:04.651Z,6.60
2023-04-04T04:41:32.402Z,9.80
2023-04-04T04:44:00.434Z,6.40
2023-04-04T04:46:28.291Z,7.10
2023-04-04T04:48:56.321Z,8.10
2023-04-04T04:51:25.342Z,5.80
2023-04-04T04:53:53.209Z,8.40
2023-04-04T04:56:21.321Z,7.70
2023-04-04T04:58:51.138Z,5.70
2023-04-04T05:01:19.007Z,6.60
2023-04-04T05:03:46.837Z,7.40
2023-04-04T05:06:14.758Z,6.40
2023-04-04T05:08:42.583Z,6.20
2023-04-04T05:11:10.360Z,7.60
2023-04-04T05:13:38.349Z,7.00
2023-04-04T05:16:06.212Z,6.20
2023-04-04T05:18:34.253Z,10.20
2023-04-04T05:21:04.362Z,6.40
2023-04-04T05:23:32.186Z,8.10
2023-04-04T05:26:00.128Z,9.20
2023-04-04T05:28:27.869Z,6.80
2023-04-04T05:30:56.576Z,10.40
2023-04-04T05:33:25.246Z,9.70
2023-04-04T05:35:53.243Z,6.90
2023-04-04T05:38:21.374Z,6.60
2023-04-04T05:40:49.151Z,21.10
2023-04-04T05:43:17.023Z,21.60
2023-04-04T05:45:44.863Z,11.70
2023-04-04T05:48:12.642Z,7.90
2023-04-04T05:50:40.435Z,9.70
2023-04-04T05:53:08.675Z,6.90
2023-04-04T05:55:36.428Z,12.80
2023-04-04T05:58:04.194Z,18.30
2023-04-04T06:00:32.328Z,31.30
2023-04-04T06:03:00.312Z,18.10
2023-04-04T06:05:28.275Z,11.90
2023-04-04T06:07:56.621Z,7.30
2023-04-04T06:10:24.643Z,7.30
2023-04-04T06:12:52.566Z,11.20
2023-04-04T06:15:20.442Z,8.60
2023-04-04T06:17:48.278Z,11.00
2023-04-04T06:20:16.601Z,11.30
2023-04-04T06:22:44.745Z,11.60
2023-04-04T06:25:14.644Z,11.90
2023-04-04T06:27:42.626Z,9.50
2023-04-04T06:30:11.957Z,8.80
2023-04-04T06:32:40.008Z,11.80
2023-04-04T06:35:08.214Z,11.20
2023-04-04T06:37:35.992Z,15.80
2023-04-04T06:40:04.340Z,11.10
2023-04-04T06:42:32.440Z,6.90
2023-04-04T06:45:00.546Z,11.30
2023-04-04T06:47:28.853Z,7.60
2023-04-04T06:49:56.834Z,5.20
2023-04-04T06:52:25.265Z,9.50
2023-04-04T06:54:53.138Z,5.70
2023-04-04T06:57:20.956Z,10.20
2023-04-04T06:59:48.868Z,8.80
2023-04-04T07:02:16.957Z,4.60
2023-04-04T07:04:44.997Z,9.90
2023-04-04T07:07:12.863Z,16.70
2023-04-04T07:09:40.757Z,5.80
2023-04-04T07:12:08.695Z,4.40
2023-04-04T07:14:37.014Z,5.10
2023-04-04T07:17:13.681Z,8.70
2023-04-04T07:19:45.158Z,10.90
2023-04-04T07:22:15.465Z,9.30
2023-04-04T07:24:43.458Z,14.30
2023-04-04T07:27:11.693Z,11.60
2023-04-04T07:29:39.774Z,6.20
2023-04-04T07:32:07.754Z,7.00
2023-04-04T07:34:35.564Z,3.80
2023-04-04T07:37:03.776Z,6.90
2023-04-04T07:39:32.022Z,6.20
2023-04-04T07:41:59.896Z,6.90
2023-04-04T07:44:27.884Z,4.60
2023-04-04T07:47:06.382Z,6.30
2023-04-04T07:49:37.733Z,7.10
2023-04-04T07:52:06.540Z,6.80
2023-04-04T07:54:38.214Z,4.90
2023-04-04T07:57:06.616Z,5.50
2023-04-04T07:59:34.462Z,4.50
2023-04-04T08:02:02.198Z,4.90
2023-04-04T08:04:30.722Z,5.60
2023-04-04T08:06:58.728Z,7.20
2023-04-04T08:09:28.537Z,4.30
2023-04-04T08:11:56.362Z,9.40
2023-04-04T08:14:24.465Z,7.90
2023-04-04T08:16:52.665Z,7.00
2023-04-04T08:19:20.569Z,4.00
2023-04-04T08:21:48.258Z,4.20
2023-04-04T08:24:16.706Z,6.50
2023-04-04T08:26:49.130Z,4.80
2023-04-04T08:29:23.173Z,6.60
2023-04-04T08:31:51.063Z,7.00
2023-04-04T08:34:20.763Z,4.30
2023-04-04T08:36:48.587Z,5.00
2023-04-04T08:39:19.684Z,4.90
2023-04-04T08:41:47.516Z,8.50
2023-04-04T08:44:18.088Z,17.90
2023-04-04T08:46:46.049Z,3.60
2023-04-04T08:49:16.076Z,7.70
2023-04-04T08:51:45.148Z,4.60
2023-04-04T08:54:13.339Z,7.10
2023-04-04T08:56:41.066Z,4.90
2023-04-04T08:59:15.696Z,7.60
2023-04-04T09:01:43.664Z,4.70
2023-04-04T09:04:11.962Z,3.90
2023-04-04T09:06:40.316Z,4.00
2023-04-04T09:09:08.655Z,5.90
2023-04-04T09:11:36.919Z,5.10
2023-04-04T09:14:09.966Z,6.00
2023-04-04T09:16:37.862Z,3.30
2023-04-04T09:19:05.652Z,5.00
2023-04-04T09:21:33.948Z,4.40
2023-04-04T09:24:02.378Z,5.30
2023-04-04T09:26:46.451Z,8.40
2023-04-04T09:29:14.721Z,3.80
2023-04-04T09:31:46.856Z,4.90
2023-04-04T09:34:19.079Z,5.40
2023-04-04T09:36:47.054Z,6.70
2023-04-04T09:39:17.591Z,8.10
2023-04-04T09:41:48.399Z,8.50
2023-04-04T09:44:16.650Z,10.80
2023-04-04T09:46:45.421Z,38.00
2023-04-04T09:49:20.654Z,29.80
2023-04-04T09:51:51.328Z,13.20
2023-04-04T09:54:29.467Z,3.70
2023-04-04T09:56:58.284Z,8.40
2023-04-04T09:59:28.649Z,2.70
2023-04-04T10:01:56.690Z,4.00
2023-04-04T10:04:27.113Z,4.60
2023-04-04T10:06:56.371Z,3.30
2023-04-04T10:09:24.637Z,4.20
2023-04-04T10:12:08.528Z,3.20
2023-04-04T10:14:36.729Z,5.50
2023-04-04T10:17:09.254Z,6.30
2023-04-04T10:19:38.556Z,1.70
2023-04-04T10:22:06.668Z,7.30
2023-04-04T10:24:35.061Z,10.20
2023-04-04T10:27:02.978Z,7.30
2023-04-04T10:29:32.431Z,4.80
2023-04-04T10:32:02.723Z,5.80
2023-04-04T10:34:36.224Z,6.90
2023-04-04T10:37:10.697Z,6.20
2023-04-04T10:39:46.298Z,10.40
2023-04-04T10:42:15.326Z,3.40
2023-04-04T10:44:45.089Z,3.90
2023-04-04T10:47:22.098Z,4.50
2023-04-04T10:49:50.707Z,6.70
2023-04-04T10:52:19.675Z,5.80
2023-04-04T10:54:50.108Z,4.20
2023-04-04T10:57:18.139Z,5.50
2023-04-04T11:00:05.753Z,4.60
2023-04-04T11:02:52.129Z,12.70
2023-04-04T11:05:34.588Z,5.00
2023-04-04T11:10:38.307Z,8.50
2023-04-04T11:13:16.309Z,12.50
2023-04-04T11:16:00.527Z,13.10
2023-04-04T11:18:41.667Z,28.70
2023-04-04T11:21:10.397Z,4.10
2023-04-04T11:23:50.521Z,7.40
2023-04-04T11:26:20.108Z,8.50
2023-04-04T11:28:48.631Z,5.60
2023-04-04T11:31:19.786Z,3.10
2023-04-04T11:34:13.993Z,4.80
2023-04-04T11:36:43.154Z,3.50
2023-04-04T11:39:15.700Z,5.10
2023-04-04T11:41:52.747Z,3.70
2023-04-04T11:44:22.626Z,5.50
2023-04-04T11:46:57.292Z,8.10
2023-04-04T11:49:29.859Z,5.00
2023-04-04T11:51:58.176Z,5.40
2023-04-04T11:54:26.479Z,5.50
2023-04-04T11:56:54.774Z,4.30
2023-04-04T11:59:23.233Z,4.00
2023-04-04T12:01:51.383Z,7.30
2023-04-04T12:04:20.092Z,11.50
2023-04-04T12:06:54.148Z,6.70
2023-04-04T12:09:25.678Z,3.30
2023-04-04T12:11:54.808Z,18.20
2023-04-04T12:14:23.888Z,5.70
2023-04-04T12:16:52.728Z,4.40
2023-04-04T12:19:21.497Z,5.00
2023-04-04T12:21:49.730Z,5.20
2023-04-04T12:24:17.745Z,6.60
2023-04-04T12:26:49.092Z,11.00
2023-04-04T12:29:17.291Z,9.70
2023-04-04T12:31:46.487Z,7.90
2023-04-04T12:34:22.697Z,7.00
2023-04-04T12:36:54.995Z,5.90
2023-04-04T12:39:23.457Z,4.30
2023-04-04T12:41:52.847Z,4.80
2023-04-04T12:44:30.512Z,5.20
2023-04-04T12:47:00.298Z,8.40
2023-04-04T12:49:30.415Z,3.10
2023-04-04T12:52:04.469Z,5.50
2023-04-04T12:54:33.226Z,5.50
2023-04-04T12:57:04.749Z,4.10
2023-04-04T12:59:33.719Z,5.80
2023-04-04T13:02:07.504Z,10.20
2023-04-04T13:04:35.877Z,10.20
2023-04-04T13:07:04.253Z,3.30
2023-04-04T13:09:32.199Z,4.30
2023-04-04T13:12:00.141Z,10.20
2023-04-04T13:14:29.180Z,7.20
2023-04-04T13:17:05.790Z,3.60
2023-04-04T13:19:33.901Z,9.50
2023-04-04T13:22:02.671Z,3.40
2023-04-04T13:24:30.705Z,4.10
2023-04-04T13:26:58.528Z,8.40
2023-04-04T13:29:27.605Z,4.00
2023-04-04T13:31:55.660Z,6.50
2023-04-04T13:34:24.294Z,6.40
2023-04-04T13:36:52.818Z,6.50
2023-04-04T13:39:21.041Z,3.90
2023-04-04T13:41:50.195Z,5.90
2023-04-04T13:44:17.995Z,5.50
2023-04-04T13:46:45.875Z,6.00
2023-04-04T13:49:13.611Z,6.70
2023-04-04T13:51:41.420Z,10.20
2023-04-04T13:54:09.280Z,3.90
2023-04-04T13:56:37.169Z,9.50
2023-04-04T13:59:05.010Z,5.20
2023-04-04T14:01:32.961Z,5.20
2023-04-04T14:04:03.434Z,9.70
2023-04-04T14:06:35.908Z,5.10
2023-04-04T14:09:03.669Z,8.00
2023-04-04T14:11:31.508Z,6.60
2023-04-04T14:13:59.270Z,4.60
2023-04-04T14:16:26.992Z,5.00
2023-04-04T14:18:54.760Z,5.80
2023-04-04T14:21:22.616Z,5.80
2023-04-04T14:23:50.599Z,4.70
2023-04-04T14:26:18.469Z,5.50
2023-04-04T14:28:46.643Z,9.10
2023-04-04T14:31:14.527Z,4.80
2023-04-04T14:33:42.286Z,4.10
2023-04-04T14:36:10.026Z,7.40
2023-04-04T14:38:37.802Z,8.50
2023-04-04T14:41:05.566Z,7.10
2023-04-04T14:43:33.302Z,8.00
2023-04-04T14:46:01.506Z,4.50
2023-04-04T14:48:29.303Z,4.50
2023-04-04T14:50:57.098Z,5.60
2023-04-04T14:53:25.102Z,5.60
2023-04-04T14:55:53.425Z,6.60
2023-04-04T14:58:21.326Z,13.20
2023-04-04T15:00:49.653Z,5.90
2023-04-04T15:03:17.496Z,6.20
2023-04-04T15:05:45.315Z,6.90
2023-04-04T15:08:13.118Z,6.80
2023-04-04T15:10:41.105Z,6.30
2023-04-04T15:13:09.064Z,7.60
2023-04-04T15:15:36.811Z,6.70
2023-04-04T15:18:04.652Z,4.90
2023-04-04T15:20:32.380Z,3.80
2023-04-04T15:23:00.312Z,4.20
2023-04-04T15:25:29.853Z,5.20
2023-04-04T15:27:57.674Z,5.20
2023-04-04T15:30:25.605Z,10.40
2023-04-04T15:32:54.456Z,6.80
2023-04-04T15:35:22.549Z,6.20
2023-04-04T15:37:51.322Z,8.70
2023-04-04T15:40:19.173Z,4.90
2023-04-04T15:42:47.638Z,5.10
2023-04-04T15:45:18.875Z,17.20
2023-04-04T15:47:46.793Z,17.00
2023-04-04T15:50:28.836Z,10.90
2023-04-04T15:52:59.286Z,8.80
2023-04-04T15:55:27.234Z,18.70
2023-04-04T15:57:54.945Z,8.30
2023-04-04T16:00:22.835Z,2.30
2023-04-04T16:02:50.694Z,4.60
2023-04-04T16:05:18.614Z,7.20
2023-04-04T16:07:46.367Z,7.10
2023-04-04T16:10:14.142Z,5.70
2023-04-04T16:12:42.344Z,9.20
2023-04-04T16:15:12.030Z,10.90
2023-04-04T16:17:40.069Z,6.80
2023-04-04T16:20:08.513Z,21.60
2023-04-04T16:22:40.144Z,6.40
2023-04-04T16:25:09.022Z,10.90
2023-04-04T16:27:37.261Z,11.70
2023-04-04T16:30:05.324Z,11.80
2023-04-04T16:32:34.455Z,7.60
2023-04-04T16:35:02.277Z,9.60
2023-04-04T16:37:30.054Z,12.00
2023-04-04T16:40:00.966Z,5.90
2023-04-04T16:42:28.881Z,4.70
2023-04-04T16:44:56.615Z,3.30
2023-04-04T16:47:26.130Z,6.40
2023-04-04T16:49:55.191Z,12.20
2023-04-04T16:52:23.378Z,9.10
2023-04-04T16:54:51.198Z,11.40
2023-04-04T16:57:19.235Z,11.70
2023-04-04T16:59:46.946Z,8.70
2023-04-04T17:02:15.051Z,10.20
2023-04-04T17:04:43.806Z,9.30
2023-04-04T17:07:11.603Z,6.10
2023-04-04T17:09:39.455Z,6.20
2023-04-04T17:12:07.541Z,5.70
2023-04-04T17:14:36.893Z,7.10
2023-04-04T17:17:05.588Z,5.10
2023-04-04T17:19:35.249Z,6.00
2023-04-04T17:22:03.386Z,7.90
2023-04-04T17:24:31.131Z,6.90
2023-04-04T17:27:00.686Z,11.80
2023-04-04T17:29:28.898Z,7.70
2023-04-04T17:31:57.346Z,8.10
2023-04-04T17:34:25.689Z,6.40
2023-04-04T17:36:54.114Z,9.00
2023-04-04T17:39:22.086Z,10.00
2023-04-04T17:41:50.769Z,12.30
2023-04-04T17:44:22.971Z,14.00
2023-04-04T17:46:50.825Z,23.10
2023-04-04T17:49:20.646Z,26.70
2023-04-04T17:51:49.068Z,25.10
2023-04-04T17:54:17.542Z,20.40
2023-04-04T17:56:46.187Z,14.70
2023-04-04T17:59:14.818Z,13.50
2023-04-04T18:01:43.021Z,17.20
2023-04-04T18:04:10.888Z,15.70
2023-04-04T18:06:40.423Z,17.80
2023-04-04T18:09:10.538Z,14.50
2023-04-04T18:11:39.027Z,10.10
2023-04-04T18:14:06.842Z,7.80
2023-04-04T18:16:39.849Z,8.40
2023-04-04T18:19:09.677Z,6.90
2023-04-04T18:21:38.366Z,8.20
2023-04-04T18:24:11.808Z,15.30
2023-04-04T18:26:40.244Z,15.30
2023-04-04T18:29:08.420Z,13.20
2023-04-04T18:31:36.724Z,12.50
2023-04-04T18:34:04.764Z,7.40
2023-04-04T18:36:32.662Z,5.40
2023-04-04T18:39:01.246Z,8.20
2023-04-04T18:41:29.259Z,9.20
2023-04-04T18:43:57.144Z,8.50
2023-04-04T18:46:25.016Z,8.80
2023-04-04T18:48:52.947Z,9.40
2023-04-04T18:51:23.094Z,11.20
2023-04-04T18:53:52.310Z,14.00
2023-04-04T18:56:21.622Z,9.60
2023-04-04T18:58:49.917Z,9.50
2023-04-04T19:01:18.137Z,9.30
2023-04-04T19:03:47.645Z,9.10
2023-04-04T19:06:15.816Z,8.50
2023-04-04T19:08:44.368Z,9.10
2023-04-04T19:11:12.629Z,10.60
2023-04-04T19:13:40.777Z,8.20
2023-04-04T19:16:08.755Z,13.60
2023-04-04T19:18:36.850Z,15.70
2023-04-04T19:21:06.388Z,15.30
2023-04-04T19:23:34.926Z,16.30
2023-04-04T19:26:02.922Z,18.60
2023-04-04T19:28:31.251Z,17.10
2023-04-04T19:31:00.813Z,15.00
2023-04-04T19:33:32.809Z,17.40
2023-04-04T19:36:11.248Z,16.90
2023-04-04T19:38:42.695Z,14.00
2023-04-04T19:41:20.590Z,15.90
2023-04-04T19:43:49.626Z,20.80
2023-04-04T19:46:24.589Z,16.60
2023-04-04T19:49:03.261Z,17.50
2023-04-04T19:51:36.644Z,17.40
2023-04-04T19:54:06.210Z,17.90
2023-04-04T19:56:34.878Z,17.70
2023-04-04T19:59:09.075Z,21.10
2023-04-04T20:01:44.607Z,17.40
2023-04-04T20:04:15.330Z,15.30
2023-04-04T20:06:43.202Z,12.90
2023-04-04T20:09:14.409Z,13.40
2023-04-04T20:11:42.141Z,16.70
2023-04-04T20:14:12.900Z,17.20
2023-04-04T20:16:40.727Z,18.30
2023-04-04T20:19:16.647Z,17.10
2023-04-04T20:21:44.430Z,13.40
2023-04-04T20:24:16.063Z,16.90
2023-04-04T20:27:00.808Z,18.70
2023-04-04T20:29:30.041Z,17.10
2023-04-04T20:31:59.371Z,17.50
2023-04-04T20:34:36.467Z,18.00
2023-04-04T20:37:23.336Z,20.20
2023-04-04T20:39:57.954Z,24.60
2023-04-04T20:42:29.267Z,23.30
2023-04-04T20:45:11.882Z,21.60
2023-04-04T20:47:39.810Z,20.00
2023-04-04T20:50:17.141Z,18.40
2023-04-04T20:53:00.747Z,20.30
2023-04-04T20:55:31.708Z,23.10
2023-04-04T20:58:07.507Z,21.90
2023-04-04T21:00:39.333Z,20.70
2023-04-04T21:03:09.215Z,26.70
2023-04-04T21:05:41.161Z,25.70
2023-04-04T21:08:20.967Z,29.80
2023-04-04T21:10:52.724Z,22.30
2023-04-04T21:13:23.770Z,24.60
2023-04-04T21:15:51.780Z,25.00
2023-04-04T21:18:23.012Z,28.90
2023-04-04T21:20:53.668Z,25.70
2023-04-04T21:23:28.133Z,24.60
2023-04-04T21:25:56.314Z,23.50
2023-04-04T21:28:27.466Z,23.10
2023-04-04T21:30:56.142Z,23.70
2023-04-04T21:33:24.042Z,25.90
2023-04-04T21:35:52.727Z,22.20
2023-04-04T21:38:33.563Z,25.70
2023-04-04T21:41:21.711Z,23.70
2023-04-04T21:43:49.492Z,34.50
2023-04-04T21:46:17.373Z,27.30
2023-04-04T21:48:45.308Z,31.50
2023-04-04T21:51:13.546Z,31.60
2023-04-04T21:53:41.467Z,30.40
2023-04-04T21:56:09.396Z,34.70
2023-04-04T21:58:37.276Z,36.10
2023-04-04T22:01:05.068Z,34.00
2023-04-04T22:03:32.986Z,34.30
2023-04-04T22:06:00.781Z,35.20
2023-04-04T22:08:28.553Z,38.10
2023-04-04T22:10:59.340Z,31.00
2023-04-04T22:13:33.029Z,33.90
2023-04-04T22:16:01.992Z,32.70
2023-04-04T22:18:43.200Z,27.00
2023-04-04T22:21:10.986Z,22.20
2023-04-04T22:23:40.298Z,19.10
2023-04-04T22:26:11.006Z,19.10
2023-04-04T22:28:39.036Z,20.20
2023-04-04T22:31:06.845Z,16.50
2023-04-04T22:33:35.023Z,21.60
2023-04-04T22:36:03.416Z,18.30
2023-04-04T22:38:31.550Z,16.40
2023-04-04T22:40:59.772Z,18.60
2023-04-04T22:43:28.643Z,18.20
2023-04-04T22:45:59.716Z,21.40
2023-04-04T22:48:30.834Z,18.10
2023-04-04T22:50:58.806Z,21.30
2023-04-04T22:53:26.767Z,18.80
2023-04-04T22:55:59.816Z,18.60
2023-04-04T22:58:29.912Z,22.00
2023-04-04T23:00:57.814Z,20.80
2023-04-04T23:03:25.777Z,26.00
2023-04-04T23:05:53.611Z,20.00
2023-04-04T23:08:21.638Z,19.00
2023-04-04T23:10:49.365Z,22.00
2023-04-04T23:13:17.287Z,21.00
2023-04-04T23:15:47.915Z,19.20
2023-04-04T23:18:15.779Z,20.00
2023-04-04T23:20:43.872Z,20.70
2023-04-04T23:23:14.813Z,24.10
2023-04-04T23:25:42.783Z,25.10
2023-04-04T23:28:13.552Z,21.00
2023-04-04T23:30:41.764Z,20.30
2023-04-04T23:33:09.859Z,23.60
2023-04-04T23:35:37.625Z,24.10
2023-04-04T23:38:05.754Z,25.80
2023-04-04T23:40:33.484Z,27.80
2023-04-04T23:43:01.401Z,25.70
2023-04-04T23:45:31.250Z,28.10
2023-04-04T23:47:59.120Z,28.90
2023-04-04T23:50:26.956Z,28.50
2023-04-04T23:52:54.815Z,25.90
2023-04-04T23:55:24.958Z,25.40
2023-04-04T23:57:54.641Z,27.50
